createdAt,value
2023-02-18T00:02:26.160Z,10.13
2023-02-18T00:07:22.334Z,10.27
2023-02-18T00:12:18.654Z,10.35
2023-02-18T00:17:14.884Z,10.15
2023-02-18T00:22:11.131Z,10.17
2023-02-18T00:27:07.407Z,10.16
2023-02-18T00:32:04.670Z,10.12
2023-02-18T00:37:00.896Z,10.08
2023-02-18T00:41:58.180Z,9.97
2023-02-18T00:46:54.454Z,9.9
2023-02-18T00:51:50.677Z,9.86
2023-02-18T00:56:46.940Z,9.88
2023-02-18T01:01:43.282Z,10.02
2023-02-18T01:06:39.451Z,9.87
2023-02-18T01:11:36.751Z,9.89
2023-02-18T01:16:33.004Z,9.84
2023-02-18T01:21:29.206Z,9.86
2023-02-18T01:26:25.455Z,9.71
2023-02-18T01:31:21.904Z,9.72
2023-02-18T01:36:18.014Z,9.62
2023-02-18T01:41:18.236Z,9.7
2023-02-18T01:46:21.557Z,9.45
2023-02-18T01:51:19.748Z,9.53
2023-02-18T01:56:19.974Z,9.49
2023-02-18T02:01:16.268Z,9.43
2023-02-18T02:06:14.497Z,9.39
2023-02-18T02:11:21.749Z,9.29
2023-02-18T02:16:26.054Z,9.27
2023-02-18T02:21:37.208Z,9.18
2023-02-18T02:26:52.403Z,9.04
2023-02-18T02:32:15.591Z,8.93
2023-02-18T02:37:17.872Z,8.87
2023-02-18T02:42:20.103Z,8.64
2023-02-18T02:47:20.341Z,8.64
2023-02-18T02:52:22.619Z,8.53
2023-02-18T02:57:28.825Z,8.44
2023-02-18T03:02:36.052Z,8.48
2023-02-18T03:07:46.333Z,8.47
2023-02-18T03:12:52.530Z,8.47
2023-02-18T03:17:56.807Z,8.61
2023-02-18T03:22:56.007Z,8.47
2023-02-18T03:27:56.248Z,8.46
2023-02-18T03:32:57.508Z,8.44
2023-02-18T03:37:55.793Z,8.43
2023-02-18T03:42:52.043Z,8.32
2023-02-18T03:47:48.277Z,8.4
2023-02-18T03:52:44.523Z,8.49
2023-02-18T03:57:40.821Z,8.23
2023-02-18T04:02:37.091Z,8.63
2023-02-18T04:07:33.300Z,8.39
2023-02-18T04:12:29.562Z,8.53
2023-02-18T04:17:25.820Z,8.66
2023-02-18T04:22:22.134Z,8.76
2023-02-18T04:27:18.335Z,8.71
2023-02-18T04:32:14.608Z,8.78
2023-02-18T04:37:10.880Z,8.93
2023-02-18T04:42:07.146Z,9.01
2023-02-18T04:47:03.401Z,8.99
2023-02-18T04:51:59.679Z,9.06
2023-02-18T04:56:55.929Z,9.05
2023-02-18T05:01:52.173Z,9.08
2023-02-18T05:06:48.455Z,9.04
2023-02-18T05:11:44.714Z,8.95
2023-02-18T05:16:40.938Z,8.7
2023-02-18T05:21:37.218Z,8.72
2023-02-18T05:26:33.472Z,8.86
2023-02-18T05:31:29.867Z,8.85
2023-02-18T05:36:26.046Z,8.64
2023-02-18T05:41:22.260Z,8.47
2023-02-18T05:46:18.542Z,8.86
2023-02-18T05:51:14.746Z,8.81
2023-02-18T05:56:11.040Z,8.67
2023-02-18T06:01:07.295Z,8.27
2023-02-18T06:06:03.622Z,8.5
2023-02-18T06:10:59.868Z,8.8
2023-02-18T06:15:56.066Z,8.67
2023-02-18T06:20:52.317Z,9.01
2023-02-18T06:25:48.591Z,9.07
2023-02-18T06:30:44.840Z,8.86
2023-02-18T06:35:41.124Z,8.76
2023-02-18T06:40:38.366Z,8.75
2023-02-18T06:45:34.587Z,8.74
2023-02-18T06:50:30.866Z,8.73
2023-02-18T06:55:27.158Z,8.79
2023-02-18T07:00:23.410Z,8.67
2023-02-18T07:05:19.643Z,8.7
2023-02-18T07:10:15.884Z,8.81
2023-02-18T07:15:12.216Z,9.3
2023-02-18T07:20:09.429Z,8.7
2023-02-18T07:25:05.750Z,9.11
2023-02-18T07:30:02.080Z,9.05
2023-02-18T07:34:58.207Z,9.38
2023-02-18T07:39:54.451Z,9.44
2023-02-18T07:44:50.707Z,9.48
2023-02-18T07:49:47.013Z,9.51
2023-02-18T07:54:43.279Z,9.35
2023-02-18T07:59:39.512Z,9.15
2023-02-18T08:04:34.762Z,9.41
2023-02-18T08:09:31.039Z,9.47
2023-02-18T08:14:26.287Z,9.41
2023-02-18T08:19:22.522Z,9.22
2023-02-18T08:24:18.857Z,9.44
2023-02-18T08:29:15.087Z,9.63
2023-02-18T08:34:11.409Z,9.48
2023-02-18T08:39:07.648Z,9.53
2023-02-18T08:44:03.870Z,9.48
2023-02-18T08:49:01.090Z,9.65
2023-02-18T08:53:57.400Z,9.8
2023-02-18T08:58:53.619Z,9.79
2023-02-18T09:03:49.965Z,9.97
2023-02-18T09:08:46.184Z,10.07
2023-02-18T09:13:42.430Z,10.2
2023-02-18T09:18:38.640Z,10.29
2023-02-18T09:23:34.937Z,9.92
2023-02-18T09:28:31.188Z,9.95
2023-02-18T09:33:27.439Z,10.15
2023-02-18T09:38:24.695Z,10.19
2023-02-18T09:43:23.971Z,10.14
2023-02-18T09:48:26.666Z,10.28
2023-02-18T09:53:23.501Z,10.03
2023-02-18T09:58:23.755Z,10.3
2023-02-18T10:03:25.937Z,10.55
2023-02-18T10:08:27.186Z,10.54
2023-02-18T10:13:25.515Z,10.65
2023-02-18T10:18:25.770Z,10.78
2023-02-18T10:23:22.941Z,10.93
2023-02-18T10:28:23.254Z,11
2023-02-18T10:33:27.426Z,11.12
2023-02-18T10:38:34.684Z,11.22
2023-02-18T10:43:37.943Z,11.39
2023-02-18T10:48:50.161Z,11.47
2023-02-18T10:53:49.423Z,11.51
2023-02-18T10:58:51.656Z,11.54
2023-02-18T11:03:49.914Z,11.75
2023-02-18T11:08:49.139Z,12.39
2023-02-18T11:13:52.373Z,13.04
2023-02-18T11:18:57.595Z,13.4
2023-02-18T11:23:54.871Z,13.36
2023-02-18T11:34:04.420Z,13.68
2023-02-18T11:39:05.641Z,13.35
2023-02-18T11:44:04.874Z,13.1
2023-02-18T11:49:08.112Z,13.11
2023-02-18T11:54:10.330Z,13.14
2023-02-18T11:59:09.618Z,13.37
2023-02-18T12:04:12.849Z,13.52
2023-02-18T12:09:19.099Z,14.1
2023-02-18T12:14:20.400Z,13.96
2023-02-18T12:19:28.584Z,13.61
2023-02-18T12:24:38.796Z,13.52
2023-02-18T12:29:48.989Z,13.64
2023-02-18T12:34:59.240Z,13.64
2023-02-18T12:40:09.520Z,13.93
2023-02-18T12:45:22.660Z,13.81
2023-02-18T12:50:36.894Z,13.8
2023-02-18T12:55:48.138Z,13.72
2023-02-18T13:01:03.349Z,13.74
2023-02-18T13:06:08.848Z,13.78
2023-02-18T13:11:19.799Z,13.7
2023-02-18T13:16:19.108Z,13.76
2023-02-18T13:21:17.309Z,13.79
2023-02-18T13:26:14.685Z,13.86
2023-02-18T13:31:19.878Z,13.92
2023-02-18T13:36:24.049Z,14.19
2023-02-18T13:41:21.298Z,14.15
2023-02-18T13:46:26.522Z,14.1
2023-02-18T13:51:28.778Z,14.17
2023-02-18T13:56:28.000Z,14.35
2023-02-18T14:01:35.254Z,14.38
2023-02-18T14:06:31.526Z,14.4
2023-02-18T14:11:39.765Z,14.55
2023-02-18T14:16:40.989Z,15.61
2023-02-18T14:21:43.217Z,15.68
2023-02-18T14:26:44.498Z,17.03
2023-02-18T14:31:49.881Z,17.47
2023-02-18T14:36:55.953Z,17.1
2023-02-18T14:42:02.215Z,17.54
2023-02-18T14:47:09.450Z,17.91
2023-02-18T14:52:10.741Z,18.43
2023-02-18T14:57:13.951Z,17.77
2023-02-18T15:02:16.124Z,18.55
2023-02-18T15:07:12.416Z,17.81
2023-02-18T15:12:17.705Z,16.42
2023-02-18T15:17:21.882Z,15.96
2023-02-18T15:22:27.118Z,15.76
2023-02-18T15:27:31.400Z,14.89
2023-02-18T15:32:32.684Z,14.66
2023-02-18T15:37:34.842Z,14.69
2023-02-18T15:42:42.143Z,13.97
2023-02-18T15:47:44.328Z,13.64
2023-02-18T15:52:45.593Z,13.4
2023-02-18T15:57:48.818Z,13.13
2023-02-18T16:02:53.060Z,12.77
2023-02-18T16:07:58.296Z,12.27
2023-02-18T16:13:00.602Z,11.97
2023-02-18T16:18:01.810Z,11.71
2023-02-18T16:23:10.074Z,11.44
2023-02-18T16:28:17.240Z,11.37
2023-02-18T16:33:18.509Z,11.18
2023-02-18T16:43:27.057Z,11.07
2023-02-18T16:48:31.230Z,10.82
2023-02-18T16:53:32.482Z,10.62
2023-02-18T16:58:33.721Z,10.94
2023-02-18T17:03:34.932Z,10.54
2023-02-18T17:08:41.186Z,10.51
2023-02-18T17:13:44.447Z,10.56
2023-02-18T17:18:45.696Z,10.74
2023-02-18T17:23:46.930Z,11.04
2023-02-18T17:28:49.184Z,10.95
2023-02-18T17:33:50.440Z,11.21
2023-02-18T17:38:51.697Z,10.74
2023-02-18T17:43:52.918Z,10.87
2023-02-18T17:48:54.169Z,11.06
2023-02-18T17:53:55.433Z,10.08
2023-02-18T17:58:56.652Z,10.04
2023-02-18T18:03:57.916Z,10.48
2023-02-18T18:08:59.152Z,10.82
2023-02-18T18:14:01.421Z,10.44
2023-02-18T18:19:02.671Z,10.69
2023-02-18T18:24:03.873Z,10.04
2023-02-18T18:29:05.127Z,10.52
2023-02-18T18:34:06.374Z,10.5
2023-02-18T18:39:07.646Z,10.27
2023-02-18T18:44:09.865Z,10.83
2023-02-18T18:49:11.194Z,10.54
2023-02-18T18:54:12.420Z,10.23
2023-02-18T18:59:13.663Z,10.02
2023-02-18T19:04:15.953Z,9.81
2023-02-18T19:09:17.095Z,10.55
2023-02-18T19:14:18.338Z,9.36
2023-02-18T19:19:19.590Z,9.75
2023-02-18T19:29:26.108Z,10.18
2023-02-18T19:34:27.363Z,10.24
2023-02-18T19:39:28.577Z,10.63
2023-02-18T19:44:31.858Z,9.99
2023-02-18T19:49:33.103Z,9.94
2023-02-18T19:54:33.302Z,10.83
2023-02-18T19:59:34.565Z,10.53
2023-02-18T20:04:35.861Z,11.03
2023-02-18T20:09:37.067Z,10.44
2023-02-18T20:14:38.360Z,10.57
2023-02-18T20:19:39.571Z,10.84
2023-02-18T20:24:41.840Z,10.56
2023-02-18T20:29:43.078Z,10.41
2023-02-18T20:34:44.303Z,9.36
2023-02-18T20:39:44.538Z,9.38
2023-02-18T20:44:45.825Z,9.77
2023-02-18T20:49:48.061Z,10.39
2023-02-18T20:54:50.299Z,9.89
2023-02-18T20:59:52.550Z,9.38
2023-02-18T21:04:53.821Z,9.41
2023-02-18T21:09:55.012Z,9.37
2023-02-18T21:14:55.346Z,9.36
2023-02-18T21:19:55.551Z,9.32
2023-02-18T21:24:55.818Z,9.28
2023-02-18T21:29:58.050Z,9.13
2023-02-18T21:34:59.299Z,9.05
2023-02-18T21:40:00.531Z,9.14
2023-02-18T21:45:01.793Z,9.08
2023-02-18T21:50:02.995Z,8.92
2023-02-18T21:55:05.241Z,8.97
2023-02-18T22:00:19.692Z,9.57
2023-02-18T22:05:12.722Z,9.12
2023-02-18T22:10:14.010Z,9.38
2023-02-18T22:15:15.218Z,9.42
2023-02-18T22:20:16.473Z,9.09
2023-02-18T22:25:17.737Z,8.54
2023-02-18T22:30:19.094Z,8.83
2023-02-18T22:35:20.272Z,9.15
2023-02-18T22:40:21.498Z,8.89
2023-02-18T22:45:22.694Z,9.59
2023-02-18T22:50:23.970Z,9.14
2023-02-18T22:55:25.219Z,8.68
2023-02-18T23:00:26.484Z,8.58
2023-02-18T23:05:27.730Z,8.19
2023-02-18T23:10:28.968Z,8.26
2023-02-18T23:15:30.185Z,8.68
2023-02-18T23:20:31.455Z,8.39
2023-02-18T23:25:32.721Z,8.42
2023-02-18T23:30:33.990Z,8.34
2023-02-18T23:35:35.209Z,8.86
2023-02-18T23:40:36.494Z,9.37
2023-02-18T23:45:37.852Z,9.58
2023-02-18T23:50:38.941Z,9.79
2023-02-18T23:55:40.189Z,8.93
